createdAt,value
2022-12-25T00:00:35.640Z,80.19
2022-12-25T00:03:02.801Z,81.29
2022-12-25T00:05:29.678Z,80.42
2022-12-25T00:07:56.722Z,80.37
2022-12-25T00:10:24.229Z,81.25
2022-12-25T00:12:51.128Z,80.92
2022-12-25T00:15:18.130Z,82.01
2022-12-25T00:17:44.940Z,82.06
2022-12-25T00:20:11.919Z,82.29
2022-12-25T00:22:38.833Z,82.19
2022-12-25T00:25:05.881Z,83.06
2022-12-25T00:27:34.071Z,82.96
2022-12-25T00:30:01.740Z,83.15
2022-12-25T00:32:28.552Z,82.99
2022-12-25T00:34:55.586Z,83.21
2022-12-25T00:37:22.557Z,83.35
2022-12-25T00:39:49.403Z,84.09
2022-12-25T00:42:16.330Z,83.63
2022-12-25T00:44:43.181Z,81.79
2022-12-25T00:47:10.040Z,80.44
2022-12-25T00:49:36.890Z,81.04
2022-12-25T00:52:03.987Z,81.64
2022-12-25T00:54:30.836Z,83.15
2022-12-25T00:56:57.764Z,82.95
2022-12-25T00:59:24.729Z,82.93
2022-12-25T01:01:51.913Z,83.91
2022-12-25T01:04:19.012Z,84.71
2022-12-25T01:06:45.817Z,85.01
2022-12-25T01:09:12.540Z,85.01
2022-12-25T01:11:39.489Z,84.44
2022-12-25T01:14:06.479Z,83.52
2022-12-25T01:16:33.553Z,83.46
2022-12-25T01:19:00.485Z,84.19
2022-12-25T01:21:27.470Z,84.51
2022-12-25T01:23:54.683Z,84.17
2022-12-25T01:26:23.953Z,84.47
2022-12-25T01:28:51.617Z,84.52
2022-12-25T01:31:21.269Z,84.19
2022-12-25T01:33:48.671Z,84.14
2022-12-25T01:36:25.859Z,83.44
2022-12-25T01:38:54.722Z,83.51
2022-12-25T01:41:23.875Z,83.50
2022-12-25T01:44:00.603Z,83.88
2022-12-25T01:46:27.700Z,84.38
2022-12-25T01:48:58.127Z,84.21
2022-12-25T01:51:38.196Z,83.87
2022-12-25T01:54:09.853Z,84.62
2022-12-25T01:56:39.165Z,84.13
2022-12-25T01:59:08.233Z,84.59
2022-12-25T02:01:35.621Z,84.27
2022-12-25T02:04:26.601Z,84.47
2022-12-25T02:06:53.812Z,84.93
2022-12-25T02:09:20.656Z,84.60
2022-12-25T02:11:47.772Z,85.02
2022-12-25T02:14:14.856Z,85.76
2022-12-25T02:16:57.670Z,85.29
2022-12-25T02:19:41.659Z,84.91
2022-12-25T02:22:33.230Z,84.27
2022-12-25T02:25:33.717Z,85.02
2022-12-25T02:28:13.877Z,84.83
2022-12-25T02:30:56.591Z,84.59
2022-12-25T02:33:34.093Z,85.35
2022-12-25T02:36:06.129Z,85.69
2022-12-25T02:38:40.637Z,84.71
2022-12-25T02:41:15.680Z,85.27
2022-12-25T02:43:46.542Z,85.63
2022-12-25T02:46:17.745Z,86.13
2022-12-25T02:48:58.888Z,86.71
2022-12-25T02:51:28.984Z,86.32
2022-12-25T02:53:58.356Z,85.49
2022-12-25T02:56:29.815Z,85.34
2022-12-25T02:58:56.740Z,85.07
2022-12-25T03:01:28.510Z,85.34
2022-12-25T03:03:59.190Z,85.79
2022-12-25T03:06:29.429Z,85.20
2022-12-25T03:09:00.415Z,86.33
2022-12-25T03:11:27.308Z,85.70
2022-12-25T03:13:58.101Z,86.12
2022-12-25T03:16:25.023Z,86.40
2022-12-25T03:18:55.528Z,85.73
2022-12-25T03:21:22.482Z,85.95
2022-12-25T03:23:53.368Z,86.33
2022-12-25T03:26:20.205Z,85.37
2022-12-25T03:28:47.058Z,86.27
2022-12-25T03:31:51.650Z,86.24
2022-12-25T03:34:19.768Z,86.51
2022-12-25T03:37:08.272Z,85.85
2022-12-25T03:39:44.125Z,85.80
2022-12-25T03:42:13.471Z,86.36
2022-12-25T03:45:19.260Z,86.37
2022-12-25T03:47:49.387Z,86.37
2022-12-25T03:50:37.202Z,87.06
2022-12-25T03:53:10.987Z,87.39
2022-12-25T03:55:39.631Z,87.51
2022-12-25T03:58:17.554Z,88.04
2022-12-25T04:00:44.492Z,88.10
2022-12-25T04:03:11.364Z,87.47
2022-12-25T04:05:38.341Z,87.46
2022-12-25T04:08:05.218Z,86.50
2022-12-25T04:10:32.068Z,86.05
2022-12-25T04:12:58.934Z,86.49
2022-12-25T04:15:25.994Z,86.77
2022-12-25T04:17:52.966Z,86.57
2022-12-25T04:20:19.908Z,85.90
2022-12-25T04:22:46.752Z,86.80
2022-12-25T04:25:13.749Z,86.61
2022-12-25T04:27:40.520Z,86.53
2022-12-25T04:30:08.896Z,86.23
2022-12-25T04:32:35.873Z,85.77
2022-12-25T04:35:02.994Z,85.91
2022-12-25T04:37:29.857Z,86.22
2022-12-25T04:39:56.701Z,86.19
2022-12-25T04:42:23.515Z,87.16
2022-12-25T04:44:50.386Z,87.26
2022-12-25T04:47:17.110Z,88.00
2022-12-25T04:49:43.919Z,87.79
2022-12-25T04:52:10.726Z,86.81
2022-12-25T04:54:39.127Z,85.97
2022-12-25T04:57:06.004Z,86.95
2022-12-25T04:59:32.813Z,86.90
2022-12-25T05:01:59.894Z,87.35
2022-12-25T05:04:26.768Z,87.59
2022-12-25T05:06:54.290Z,87.83
2022-12-25T05:09:21.250Z,87.75
2022-12-25T05:11:48.042Z,87.61
2022-12-25T05:14:15.686Z,87.06
2022-12-25T05:16:42.674Z,86.61
2022-12-25T05:19:09.796Z,86.72
2022-12-25T05:21:37.120Z,86.99
2022-12-25T05:24:04.121Z,86.58
2022-12-25T05:26:30.980Z,86.63
2022-12-25T05:28:59.443Z,87.03
2022-12-25T05:31:26.355Z,87.57
2022-12-25T05:33:53.277Z,87.51
2022-12-25T05:36:20.448Z,87.02
2022-12-25T05:38:47.266Z,87.22
2022-12-25T05:41:14.134Z,88.34
2022-12-25T05:43:41.081Z,87.42
2022-12-25T05:46:10.338Z,87.74
2022-12-25T05:48:38.105Z,87.36
2022-12-25T05:51:11.027Z,87.01
2022-12-25T05:53:38.998Z,86.97
2022-12-25T05:56:08.220Z,87.46
2022-12-25T05:58:38.752Z,86.83
2022-12-25T06:01:11.859Z,86.96
2022-12-25T06:03:38.861Z,87.29
2022-12-25T06:06:06.163Z,87.44
2022-12-25T06:08:33.082Z,86.26
2022-12-25T06:11:02.904Z,87.48
2022-12-25T06:13:29.723Z,86.95
2022-12-25T06:15:56.615Z,87.45
2022-12-25T06:18:23.573Z,87.47
2022-12-25T06:20:50.564Z,88.18
2022-12-25T06:23:17.387Z,89.03
2022-12-25T06:25:44.180Z,89.52
2022-12-25T06:28:10.964Z,89.82
2022-12-25T06:30:37.803Z,89.49
2022-12-25T06:33:04.679Z,88.64
2022-12-25T06:35:31.518Z,88.08
2022-12-25T06:37:58.312Z,88.29
2022-12-25T06:40:25.148Z,88.82
2022-12-25T06:42:52.262Z,90.07
2022-12-25T06:45:19.059Z,88.20
2022-12-25T06:47:45.935Z,88.70
2022-12-25T06:50:12.751Z,88.87
2022-12-25T06:52:39.651Z,88.52
2022-12-25T06:55:06.940Z,89.79
2022-12-25T06:57:33.748Z,89.82
2022-12-25T07:00:00.610Z,89.44
2022-12-25T07:02:28.280Z,89.67
2022-12-25T07:04:55.377Z,88.71
2022-12-25T07:07:22.258Z,88.29
2022-12-25T07:09:49.417Z,88.05
2022-12-25T07:12:20.422Z,88.94
2022-12-25T07:14:47.719Z,89.15
2022-12-25T07:17:19.597Z,89.02
2022-12-25T07:19:47.366Z,89.81
2022-12-25T07:22:15.624Z,90.47
2022-12-25T07:24:43.002Z,90.42
2022-12-25T07:27:10.425Z,90.65
2022-12-25T07:29:37.199Z,90.55
2022-12-25T07:32:04.497Z,90.76
2022-12-25T07:34:32.252Z,90.76
2022-12-25T07:36:59.078Z,90.76
2022-12-25T07:39:25.881Z,91.29
2022-12-25T07:41:52.711Z,91.47
2022-12-25T07:44:19.764Z,91.50
2022-12-25T07:46:47.180Z,91.34
2022-12-25T07:49:14.096Z,91.64
2022-12-25T07:51:40.891Z,91.69
2022-12-25T07:54:07.909Z,91.59
2022-12-25T07:56:34.834Z,91.39
2022-12-25T07:59:01.851Z,91.40
2022-12-25T08:01:29.133Z,91.72
2022-12-25T08:03:59.042Z,91.82
2022-12-25T08:06:32.610Z,90.99
2022-12-25T08:09:06.569Z,91.12
2022-12-25T08:11:34.066Z,90.45
2022-12-25T08:14:01.047Z,89.76
2022-12-25T08:16:28.209Z,89.87
2022-12-25T08:18:55.144Z,89.77
2022-12-25T08:21:22.193Z,89.28
2022-12-25T08:23:49.248Z,90.45
2022-12-25T08:26:20.048Z,90.13
2022-12-25T08:28:48.327Z,90.81
2022-12-25T08:31:24.278Z,91.11
2022-12-25T08:33:54.756Z,90.95
2022-12-25T08:36:22.604Z,90.80
2022-12-25T08:38:50.775Z,90.69
2022-12-25T08:41:18.322Z,91.00
2022-12-25T08:43:45.921Z,90.67
2022-12-25T08:46:13.134Z,90.37
2022-12-25T08:48:43.272Z,89.99
2022-12-25T08:51:16.014Z,90.21
2022-12-25T08:53:44.528Z,89.86
2022-12-25T08:56:12.507Z,89.69
2022-12-25T08:58:40.198Z,89.88
2022-12-25T09:01:08.127Z,89.92
2022-12-25T09:03:35.680Z,90.05
2022-12-25T09:06:07.672Z,90.30
2022-12-25T09:08:35.360Z,89.59
2022-12-25T09:11:07.794Z,89.24
2022-12-25T09:13:36.094Z,89.18
2022-12-25T09:16:11.539Z,88.91
2022-12-25T09:18:39.064Z,88.27
2022-12-25T09:21:11.335Z,86.97
2022-12-25T09:23:39.628Z,86.80
2022-12-25T09:26:08.108Z,86.98
2022-12-25T09:28:35.112Z,85.86
2022-12-25T09:31:02.831Z,85.19
2022-12-25T09:33:29.705Z,85.17
2022-12-25T09:36:05.413Z,84.27
2022-12-25T09:38:33.280Z,84.58
2022-12-25T09:41:18.027Z,84.13
2022-12-25T09:43:50.378Z,84.94
2022-12-25T09:46:21.964Z,84.74
2022-12-25T09:49:03.143Z,84.65
2022-12-25T09:51:34.487Z,84.89
2022-12-25T09:54:10.968Z,84.16
2022-12-25T09:56:37.994Z,84.53
2022-12-25T09:59:26.416Z,84.66
2022-12-25T10:02:27.119Z,84.04
2022-12-25T10:05:18.499Z,83.69
2022-12-25T10:07:51.231Z,83.53
2022-12-25T10:10:18.061Z,81.91
2022-12-25T10:12:50.630Z,81.88
2022-12-25T10:15:43.498Z,82.13
2022-12-25T10:18:31.049Z,81.41
2022-12-25T10:21:00.813Z,81.49
2022-12-25T10:23:27.551Z,82.51
2022-12-25T10:25:54.783Z,81.97
2022-12-25T10:28:26.247Z,80.02
2022-12-25T10:30:56.209Z,80.66
2022-12-25T10:33:23.768Z,80.58
2022-12-25T10:35:50.645Z,80.56
2022-12-25T10:38:19.555Z,79.54
2022-12-25T10:41:06.486Z,80.06
2022-12-25T10:43:42.033Z,79.40
2022-12-25T10:46:13.953Z,79.63
2022-12-25T10:48:46.725Z,79.33
2022-12-25T10:51:13.945Z,79.36
2022-12-25T10:53:43.513Z,79.09
2022-12-25T10:56:18.855Z,79.02
2022-12-25T10:58:45.726Z,79.19
2022-12-25T11:01:13.620Z,79.05
2022-12-25T11:03:52.210Z,79.05
2022-12-25T11:06:25.263Z,79.24
2022-12-25T11:08:56.930Z,79.21
2022-12-25T11:11:25.034Z,79.03
2022-12-25T11:13:56.186Z,78.94
2022-12-25T11:16:36.726Z,78.75
2022-12-25T11:19:22.870Z,78.95
2022-12-25T11:21:55.926Z,79.01
2022-12-25T11:24:27.190Z,79.34
2022-12-25T11:26:57.888Z,79.46
2022-12-25T11:29:45.842Z,78.87
2022-12-25T11:32:33.535Z,79.16
2022-12-25T11:35:02.557Z,79.42
2022-12-25T11:37:43.588Z,79.18
2022-12-25T11:40:20.763Z,78.53
2022-12-25T11:42:57.576Z,79.19
2022-12-25T11:45:48.377Z,79.15
2022-12-25T11:48:23.598Z,79.33
2022-12-25T11:50:55.936Z,79.50
2022-12-25T11:53:30.763Z,79.45
2022-12-25T11:56:21.660Z,78.94
2022-12-25T11:58:53.720Z,79.16
2022-12-25T12:01:44.337Z,79.19
2022-12-25T12:04:27.425Z,79.10
2022-12-25T12:07:14.119Z,79.22
2022-12-25T12:09:54.685Z,79.22
2022-12-25T12:12:34.352Z,79.39
2022-12-25T12:15:08.952Z,79.62
2022-12-25T12:17:35.837Z,79.80
2022-12-25T12:20:24.443Z,79.40
2022-12-25T12:22:51.494Z,79.53
2022-12-25T12:25:19.611Z,79.71
2022-12-25T12:27:52.155Z,79.66
2022-12-25T12:30:35.280Z,79.67
2022-12-25T12:33:07.824Z,79.90
2022-12-25T12:35:38.809Z,79.70
2022-12-25T12:38:15.018Z,79.48
2022-12-25T12:40:52.610Z,79.68
2022-12-25T12:43:48.574Z,79.53
2022-12-25T12:46:30.704Z,79.92
2022-12-25T12:49:24.809Z,79.66
2022-12-25T12:52:07.356Z,79.62
2022-12-25T12:54:56.815Z,79.46
2022-12-25T12:57:28.081Z,79.11
2022-12-25T12:59:59.966Z,79.23
2022-12-25T13:03:07.703Z,79.19
2022-12-25T13:05:45.275Z,79.27
2022-12-25T13:08:40.059Z,79.29
2022-12-25T13:11:26.700Z,79.42
2022-12-25T13:13:57.078Z,79.58
2022-12-25T13:16:41.407Z,79.58
2022-12-25T13:19:17.384Z,79.10
2022-12-25T13:22:16.287Z,79.11
2022-12-25T13:24:43.123Z,79.12
2022-12-25T13:27:35.954Z,79.59
2022-12-25T13:30:19.172Z,79.43
2022-12-25T13:32:46.328Z,79.13
2022-12-25T13:35:14.544Z,79.64
2022-12-25T13:37:42.343Z,79.52
2022-12-25T13:40:23.430Z,79.90
2022-12-25T13:42:55.299Z,80.18
2022-12-25T13:45:26.862Z,79.82
2022-12-25T13:47:55.840Z,79.87
2022-12-25T13:50:26.885Z,79.89
2022-12-25T13:52:55.756Z,80.12
2022-12-25T13:55:29.995Z,80.10
2022-12-25T13:57:59.902Z,80.09
2022-12-25T14:01:00.838Z,80.45
2022-12-25T14:03:36.041Z,80.44
2022-12-25T14:06:06.812Z,80.54
2022-12-25T14:08:35.850Z,80.37
2022-12-25T14:11:05.777Z,81.02
2022-12-25T14:13:37.559Z,81.04
2022-12-25T14:16:05.752Z,80.67
2022-12-25T14:18:33.418Z,80.96
2022-12-25T14:21:02.635Z,81.13
2022-12-25T14:23:50.348Z,81.11
2022-12-25T14:26:27.593Z,81.32
2022-12-25T14:29:16.559Z,81.48
2022-12-25T14:31:46.222Z,81.61
2022-12-25T14:34:22.655Z,81.60
2022-12-25T14:36:51.662Z,81.93
2022-12-25T14:39:33.798Z,82.13
2022-12-25T14:42:11.275Z,82.12
2022-12-25T14:44:40.074Z,82.47
2022-12-25T14:47:18.897Z,82.31
2022-12-25T14:49:47.149Z,82.64
2022-12-25T14:52:23.335Z,82.43
2022-12-25T14:54:55.614Z,82.70
2022-12-25T14:57:47.345Z,82.96
2022-12-25T15:00:28.276Z,82.54
2022-12-25T15:02:57.717Z,82.97
2022-12-25T15:05:32.124Z,82.66
2022-12-25T15:08:22.729Z,82.69
2022-12-25T15:11:00.387Z,83.09
2022-12-25T15:13:29.379Z,83.05
2022-12-25T15:16:06.259Z,83.39
2022-12-25T15:18:39.686Z,83.27
2022-12-25T15:21:10.444Z,83.69
2022-12-25T15:23:37.297Z,83.63
2022-12-25T15:26:04.111Z,83.55
2022-12-25T15:28:30.903Z,83.54
2022-12-25T15:30:57.791Z,84.06
2022-12-25T15:33:24.625Z,83.46
2022-12-25T15:35:51.445Z,84.29
2022-12-25T15:38:18.442Z,84.45
2022-12-25T15:40:45.285Z,84.24
2022-12-25T15:43:38.761Z,83.92
2022-12-25T15:46:00.715Z,83.92
2022-12-25T15:48:27.652Z,84.32
2022-12-25T15:50:54.505Z,84.43
2022-12-25T15:53:21.502Z,85.12
2022-12-25T15:55:48.394Z,85.03
2022-12-25T15:58:15.229Z,84.93
2022-12-25T16:00:42.025Z,85.06
2022-12-25T16:03:09.088Z,85.28
2022-12-25T16:05:36.138Z,84.75
2022-12-25T16:08:02.929Z,85.20
2022-12-25T16:10:34.847Z,85.85
2022-12-25T16:13:05.473Z,86.49
2022-12-25T16:15:32.330Z,86.15
2022-12-25T16:17:59.234Z,85.23
2022-12-25T16:20:26.110Z,85.16
2022-12-25T16:22:52.911Z,85.41
2022-12-25T16:25:20.102Z,85.86
2022-12-25T16:27:47.066Z,85.91
2022-12-25T16:30:16.582Z,85.56
2022-12-25T16:32:44.198Z,85.35
2022-12-25T16:35:12.061Z,86.20
2022-12-25T16:37:39.563Z,86.32
2022-12-25T16:40:08.746Z,86.98
2022-12-25T16:42:37.154Z,87.10
2022-12-25T16:45:04.875Z,86.78
2022-12-25T16:47:32.052Z,86.82
2022-12-25T16:49:59.245Z,86.28
2022-12-25T16:52:26.149Z,87.38
2022-12-25T16:54:53.103Z,87.25
2022-12-25T16:57:19.979Z,87.81
2022-12-25T16:59:46.850Z,86.69
2022-12-25T17:02:19.701Z,87.02
2022-12-25T17:04:47.254Z,87.57
2022-12-25T17:07:15.543Z,87.72
2022-12-25T17:09:44.599Z,88.28
2022-12-25T17:12:11.760Z,88.87
2022-12-25T17:14:38.659Z,89.95
2022-12-25T17:17:05.601Z,89.20
2022-12-25T17:19:32.694Z,88.56
2022-12-25T17:21:59.767Z,89.80
2022-12-25T17:24:27.767Z,90.74
2022-12-25T17:26:55.180Z,89.83
2022-12-25T17:29:23.102Z,89.61
2022-12-25T17:31:50.951Z,89.23
2022-12-25T17:34:17.848Z,88.75
2022-12-25T17:36:44.765Z,88.46
2022-12-25T17:39:11.786Z,88.46
2022-12-25T17:41:38.976Z,89.19
2022-12-25T17:44:05.821Z,89.85
2022-12-25T17:46:32.917Z,89.05
2022-12-25T17:49:01.461Z,88.51
2022-12-25T17:51:30.397Z,88.48
2022-12-25T17:53:59.975Z,88.35
2022-12-25T17:56:26.890Z,89.03
2022-12-25T17:58:56.291Z,90.45
2022-12-25T18:01:25.241Z,90.16
2022-12-25T18:03:53.025Z,90.29
2022-12-25T18:06:23.019Z,90.15
2022-12-25T18:08:50.411Z,88.63
2022-12-25T18:11:20.916Z,88.08
2022-12-25T18:13:50.125Z,88.48
2022-12-25T18:16:18.074Z,88.51
2022-12-25T18:18:51.535Z,87.94
2022-12-25T18:21:20.087Z,87.71
2022-12-25T18:23:47.768Z,88.03
2022-12-25T18:26:14.590Z,88.87
2022-12-25T18:28:42.219Z,89.26
2022-12-25T18:31:12.988Z,88.60
2022-12-25T18:33:39.881Z,87.84
2022-12-25T18:36:07.173Z,89.86
2022-12-25T18:38:34.070Z,89.66
2022-12-25T18:41:05.747Z,90.31
2022-12-25T18:43:53.961Z,90.36
2022-12-25T18:46:21.646Z,90.62
2022-12-25T18:48:48.705Z,90.16
2022-12-25T18:51:15.666Z,89.89
2022-12-25T18:53:42.667Z,89.48
2022-12-25T18:56:12.667Z,90.65
2022-12-25T18:58:39.995Z,91.04
2022-12-25T19:01:19.229Z,89.57
2022-12-25T19:03:48.372Z,89.76
2022-12-25T19:06:20.782Z,90.25
2022-12-25T19:08:47.987Z,89.18
2022-12-25T19:11:16.107Z,89.38
2022-12-25T19:13:43.627Z,89.34
2022-12-25T19:16:11.410Z,90.82
2022-12-25T19:18:39.639Z,89.30
2022-12-25T19:21:08.504Z,88.62
2022-12-25T19:23:35.913Z,89.20
2022-12-25T19:26:05.088Z,89.24
2022-12-25T19:28:31.952Z,90.45
2022-12-25T19:31:03.236Z,89.75
2022-12-25T19:33:33.876Z,89.29
2022-12-25T19:36:08.349Z,89.41
2022-12-25T19:38:35.385Z,89.02
2022-12-25T19:41:10.668Z,88.86
2022-12-25T19:43:40.460Z,91.32
2022-12-25T19:46:14.851Z,91.57
2022-12-25T19:48:43.110Z,90.82
2022-12-25T19:51:27.888Z,93.23
2022-12-25T19:53:55.523Z,93.09
2022-12-25T19:56:23.851Z,92.78
2022-12-25T19:58:50.905Z,92.90
2022-12-25T20:01:19.974Z,91.64
2022-12-25T20:03:48.466Z,92.75
2022-12-25T20:06:18.460Z,93.39
2022-12-25T20:08:50.239Z,93.19
2022-12-25T20:11:17.725Z,93.04
2022-12-25T20:13:45.547Z,92.53
2022-12-25T20:16:12.896Z,94.67
2022-12-25T20:18:41.129Z,94.79
2022-12-25T20:21:12.499Z,93.50
2022-12-25T20:23:39.756Z,95.05
2022-12-25T20:26:07.145Z,95.23
2022-12-25T20:28:35.496Z,94.92
2022-12-25T20:31:07.042Z,94.19
2022-12-25T20:33:35.721Z,94.71
2022-12-25T20:36:04.140Z,95.32
2022-12-25T20:38:31.773Z,95.37
2022-12-25T20:41:26.309Z,95.34
2022-12-25T20:43:48.919Z,92.80
2022-12-25T20:46:16.055Z,94.02
2022-12-25T20:48:42.953Z,94.36
2022-12-25T20:51:13.804Z,94.87
2022-12-25T20:53:41.545Z,95.17
2022-12-25T20:56:14.631Z,95.13
2022-12-25T20:58:42.286Z,93.91
2022-12-25T21:01:11.717Z,93.62
2022-12-25T21:03:39.086Z,93.53
2022-12-25T21:06:07.686Z,94.18
2022-12-25T21:08:34.867Z,93.57
2022-12-25T21:11:02.644Z,93.70
2022-12-25T21:13:32.526Z,93.93
2022-12-25T21:15:59.848Z,93.10
2022-12-25T21:18:28.342Z,93.52
2022-12-25T21:20:57.396Z,92.68
2022-12-25T21:23:25.413Z,92.24
2022-12-25T21:25:53.016Z,90.38
2022-12-25T21:28:19.890Z,90.51
2022-12-25T21:30:46.718Z,89.88
2022-12-25T21:33:17.013Z,90.02
2022-12-25T21:35:44.156Z,90.73
2022-12-25T21:38:11.163Z,90.89
2022-12-25T21:40:38.475Z,90.72
2022-12-25T21:43:05.946Z,92.06
2022-12-25T21:45:35.872Z,92.81
2022-12-25T21:48:03.586Z,93.33
2022-12-25T21:50:34.628Z,91.98
2022-12-25T21:53:05.346Z,91.45
2022-12-25T21:55:32.554Z,91.76
2022-12-25T21:57:59.305Z,91.85
2022-12-25T22:00:26.219Z,91.20
2022-12-25T22:02:53.185Z,89.79
2022-12-25T22:05:20.051Z,91.67
2022-12-25T22:07:46.910Z,92.57
2022-12-25T22:10:13.735Z,91.36
2022-12-25T22:12:40.757Z,91.53
2022-12-25T22:15:09.458Z,90.60
2022-12-25T22:17:41.481Z,90.62
2022-12-25T22:20:11.011Z,93.26
2022-12-25T22:22:38.026Z,93.43
2022-12-25T22:25:06.233Z,93.52
2022-12-25T22:27:36.314Z,92.19
2022-12-25T22:30:07.871Z,92.36
2022-12-25T22:32:34.723Z,92.60
2022-12-25T22:35:01.452Z,91.99
2022-12-25T22:37:28.449Z,94.59
2022-12-25T22:39:55.385Z,94.50
2022-12-25T22:42:22.177Z,95.48
2022-12-25T22:44:49.004Z,95.73
2022-12-25T22:47:15.796Z,95.11
2022-12-25T22:49:42.624Z,95.02
2022-12-25T22:52:10.152Z,95.47
2022-12-25T22:54:38.143Z,93.19
2022-12-25T22:57:06.179Z,92.60
2022-12-25T22:59:34.071Z,92.83
2022-12-25T23:02:01.234Z,94.98
2022-12-25T23:04:29.363Z,94.17
2022-12-25T23:06:56.564Z,92.66
2022-12-25T23:42:11.046Z,92.48
2022-12-25T23:44:37.960Z,93.89
2022-12-25T23:47:04.853Z,92.83
2022-12-25T23:49:31.767Z,93.41
2022-12-25T23:51:58.749Z,94.40
2022-12-25T23:54:28.538Z,93.60
2022-12-25T23:56:55.956Z,93.69
2022-12-25T23:59:22.934Z,93.46
